Terminal Aerodrome Forecast
Issued by NWS Cleveland, OH

Home | Current Version | Previous Version | Text Only | Print | Product List | Glossary Off
Versions: 1 2 3 4 5 6 7 8 9 10 11 12 13 14 15 16 17 18

000
FTUS41 KCLE 241700
TAFERI
TAF
KERI 241740Z 2418/2518 07006KT P6SM BKN035
     FM250100 13006KT P6SM SCT035
     FM251000 16006KT 6SM HZ SCT080
     FM251500 18006KT P6SM BKN015
     FM251700 34006KT P6SM BKN035=

USA.gov is the U.S. government's official web portal to all federal, state and local government web resources and services.